createdAt,value
2022-10-18T00:00:48.130Z,6.72
2022-10-18T00:03:49.929Z,6.73
2022-10-18T00:06:51.684Z,6.78
2022-10-18T00:09:54.545Z,6.80
2022-10-18T00:12:56.270Z,6.78
2022-10-18T00:16:01.221Z,6.79
2022-10-18T00:19:03.403Z,6.80
2022-10-18T00:22:05.197Z,6.78
2022-10-18T00:25:08.656Z,6.76
2022-10-18T00:28:10.408Z,6.74
2022-10-18T00:31:21.072Z,6.72
2022-10-18T00:34:22.863Z,6.69
2022-10-18T00:37:24.762Z,6.69
2022-10-18T00:40:26.614Z,6.68
2022-10-18T00:43:28.496Z,6.68
2022-10-18T00:46:33.138Z,6.67
2022-10-18T00:49:41.100Z,6.65
2022-10-18T00:52:48.440Z,6.67
2022-10-18T00:55:50.821Z,6.65
2022-10-18T00:58:52.797Z,6.60
2022-10-18T01:01:54.561Z,6.60
2022-10-18T01:04:56.450Z,6.57
2022-10-18T01:08:28.388Z,6.52
2022-10-18T01:11:58.329Z,6.49
2022-10-18T01:15:17.142Z,6.42
2022-10-18T01:18:37.565Z,6.36
2022-10-18T01:21:48.686Z,6.31
2022-10-18T01:25:15.134Z,6.28
2022-10-18T01:28:49.944Z,6.24
2022-10-18T01:32:01.533Z,6.20
2022-10-18T01:35:08.098Z,6.16
2022-10-18T01:38:17.161Z,6.13
2022-10-18T01:41:22.505Z,6.10
2022-10-18T01:44:26.957Z,6.09
2022-10-18T01:47:29.467Z,6.07
2022-10-18T01:50:33.906Z,6.07
2022-10-18T01:53:35.959Z,6.07
2022-10-18T01:57:02.661Z,6.09
2022-10-18T02:00:22.241Z,6.14
2022-10-18T02:03:28.095Z,6.15
2022-10-18T02:06:35.758Z,6.18
2022-10-18T02:09:46.978Z,6.22
2022-10-18T02:12:51.076Z,6.24
2022-10-18T02:15:59.604Z,6.27
2022-10-18T02:19:09.238Z,6.31
2022-10-18T02:22:12.897Z,6.33
2022-10-18T02:25:20.387Z,6.40
2022-10-18T02:28:22.522Z,6.42
2022-10-18T02:31:37.493Z,6.47
2022-10-18T02:34:46.652Z,6.54
2022-10-18T02:37:50.413Z,6.61
2022-10-18T02:40:52.298Z,6.64
2022-10-18T02:43:54.449Z,6.68
2022-10-18T02:46:56.277Z,6.73
2022-10-18T02:49:58.048Z,6.76
2022-10-18T02:52:59.806Z,6.77
2022-10-18T02:56:03.238Z,6.76
2022-10-18T02:59:07.372Z,6.76
2022-10-18T03:02:09.104Z,6.74
2022-10-18T03:05:10.853Z,6.75
2022-10-18T03:08:12.639Z,6.74
2022-10-18T03:11:14.471Z,6.71
2022-10-18T03:14:16.239Z,6.71
2022-10-18T03:17:17.976Z,6.68
2022-10-18T03:20:19.954Z,6.65
2022-10-18T03:23:21.762Z,6.61
2022-10-18T03:26:23.475Z,6.61
2022-10-18T03:29:25.268Z,6.63
2022-10-18T03:32:27.080Z,6.65
2022-10-18T03:35:28.892Z,6.68
2022-10-18T03:38:31.134Z,6.73
2022-10-18T03:41:33.517Z,6.77
2022-10-18T03:44:35.294Z,6.81
2022-10-18T03:47:37.045Z,6.85
2022-10-18T03:50:38.930Z,6.89
2022-10-18T03:53:40.720Z,6.91
2022-10-18T03:56:42.421Z,6.92
2022-10-18T03:59:44.229Z,6.93
2022-10-18T04:02:46.428Z,6.94
2022-10-18T04:05:49.286Z,6.96
2022-10-18T04:08:51.048Z,6.99
2022-10-18T04:11:53.061Z,7.03
2022-10-18T04:14:55.708Z,7.06
2022-10-18T04:17:57.645Z,7.10
2022-10-18T04:20:59.430Z,7.14
2022-10-18T04:24:01.207Z,7.19
2022-10-18T04:27:03.078Z,7.27
2022-10-18T04:30:05.353Z,7.34
2022-10-18T04:33:07.076Z,7.41
2022-10-18T04:36:08.914Z,7.45
2022-10-18T04:39:10.760Z,7.53
2022-10-18T04:42:12.567Z,7.60
2022-10-18T04:45:14.501Z,7.66
2022-10-18T04:48:16.772Z,7.72
2022-10-18T04:51:18.577Z,7.78
2022-10-18T04:54:21.896Z,7.86
2022-10-18T04:57:25.682Z,7.92
2022-10-18T05:00:28.251Z,7.99
2022-10-18T05:03:30.063Z,8.03
2022-10-18T05:06:31.787Z,8.08
2022-10-18T05:09:34.041Z,8.13
2022-10-18T05:12:35.890Z,8.18
2022-10-18T05:15:37.710Z,8.25
2022-10-18T05:18:39.559Z,8.35
2022-10-18T05:21:41.357Z,8.42
2022-10-18T05:24:43.102Z,8.50
2022-10-18T05:27:44.937Z,8.59
2022-10-18T05:30:46.730Z,8.68
2022-10-18T05:33:48.551Z,8.76
2022-10-18T05:36:50.421Z,8.81
2022-10-18T05:39:52.209Z,8.90
2022-10-18T05:42:54.016Z,8.98
2022-10-18T05:45:55.929Z,9.05
2022-10-18T05:48:57.791Z,9.13
2022-10-18T05:51:59.543Z,9.25
2022-10-18T05:55:01.827Z,9.35
2022-10-18T05:58:04.269Z,9.45
2022-10-18T06:01:06.979Z,9.55
2022-10-18T06:04:13.059Z,9.64
2022-10-18T06:07:14.868Z,9.73
2022-10-18T06:10:16.843Z,9.81
2022-10-18T06:13:18.811Z,9.92
2022-10-18T06:16:22.671Z,10.03
2022-10-18T06:19:24.468Z,10.14
2022-10-18T06:22:26.197Z,10.19
2022-10-18T06:25:28.018Z,10.20
2022-10-18T06:28:30.303Z,10.24
2022-10-18T06:31:32.135Z,10.44
2022-10-18T06:34:34.538Z,10.85
2022-10-18T06:37:37.677Z,11.22
2022-10-18T06:40:39.487Z,11.48
2022-10-18T06:43:41.320Z,11.66
2022-10-18T06:46:45.016Z,11.81
2022-10-18T06:49:46.804Z,11.94
2022-10-18T06:52:49.570Z,12.09
2022-10-18T06:55:51.564Z,12.23
2022-10-18T06:58:53.564Z,12.49
2022-10-18T07:01:55.411Z,12.66
2022-10-18T07:04:57.442Z,12.75
2022-10-18T07:07:59.380Z,12.83
2022-10-18T07:11:01.825Z,12.87
2022-10-18T07:14:04.963Z,12.93
2022-10-18T07:17:06.837Z,13.02
2022-10-18T07:20:09.069Z,13.12
2022-10-18T07:23:11.710Z,13.27
2022-10-18T07:26:21.065Z,13.44
2022-10-18T07:29:23.004Z,13.55
2022-10-18T07:32:24.853Z,13.73
2022-10-18T07:35:26.672Z,13.93
2022-10-18T07:38:28.504Z,14.22
2022-10-18T07:41:33.225Z,14.42
2022-10-18T07:44:35.148Z,14.50
2022-10-18T07:47:37.280Z,14.73
2022-10-18T07:50:39.384Z,14.73
2022-10-18T07:53:41.174Z,14.86
2022-10-18T07:56:43.207Z,15.04
2022-10-18T07:59:47.991Z,15.05
2022-10-18T08:02:49.722Z,15.04
2022-10-18T08:05:53.319Z,15.05
2022-10-18T08:08:55.134Z,15.06
2022-10-18T08:11:57.019Z,14.99
2022-10-18T08:14:58.747Z,15.05
2022-10-18T08:18:00.556Z,15.22
2022-10-18T08:21:04.961Z,15.55
2022-10-18T08:24:06.953Z,15.98
2022-10-18T08:27:08.751Z,16.30
2022-10-18T08:30:10.922Z,16.52
2022-10-18T08:33:12.739Z,16.80
2022-10-18T08:36:16.885Z,17.10
2022-10-18T08:39:18.608Z,17.39
2022-10-18T08:42:29.816Z,17.59
2022-10-18T08:45:42.483Z,17.84
2022-10-18T08:48:50.417Z,18.12
2022-10-18T08:51:52.984Z,18.37
2022-10-18T08:55:18.646Z,18.41
2022-10-18T08:58:26.727Z,18.60
2022-10-18T09:02:15.563Z,18.69
2022-10-18T09:05:20.604Z,18.77
2022-10-18T09:09:00.655Z,18.83
2022-10-18T09:12:17.365Z,19.01
2022-10-18T09:15:59.951Z,19.17
2022-10-18T09:19:26.635Z,19.30
2022-10-18T09:22:53.325Z,19.22
2022-10-18T09:26:13.884Z,19.44
2022-10-18T09:29:28.947Z,19.52
2022-10-18T09:32:33.992Z,19.39
2022-10-18T09:35:49.399Z,19.46
2022-10-18T09:39:00.589Z,19.52
2022-10-18T09:42:26.954Z,19.49
2022-10-18T09:45:39.900Z,19.44
2022-10-18T09:48:51.290Z,19.45
2022-10-18T09:51:54.099Z,19.52
2022-10-18T09:55:03.325Z,19.37
2022-10-18T09:58:08.067Z,19.31
2022-10-18T10:01:12.990Z,19.27
2022-10-18T10:04:15.454Z,19.34
2022-10-18T10:07:21.980Z,19.31
2022-10-18T10:10:25.894Z,19.25
2022-10-18T10:13:28.007Z,19.24
2022-10-18T10:16:30.188Z,19.16
2022-10-18T10:19:53.612Z,19.18
2022-10-18T10:23:06.219Z,19.13
2022-10-18T10:26:22.087Z,18.92
2022-10-18T10:30:01.543Z,19.00
2022-10-18T10:33:26.830Z,19.07
2022-10-18T10:36:32.199Z,19.06
2022-10-18T10:39:33.981Z,19.11
2022-10-18T10:42:39.089Z,19.13
2022-10-18T10:46:08.911Z,19.05
2022-10-18T10:49:39.119Z,19.04
2022-10-18T10:52:43.598Z,19.06
2022-10-18T10:55:46.295Z,19.06
2022-10-18T10:58:49.023Z,19.02
2022-10-18T11:02:20.635Z,19.03
2022-10-18T11:05:29.466Z,19.00
2022-10-18T11:08:42.077Z,18.92
2022-10-18T11:11:55.463Z,18.87
2022-10-18T11:15:32.804Z,18.91
2022-10-18T11:18:36.838Z,18.87
2022-10-18T11:21:40.113Z,18.79
2022-10-18T11:24:41.987Z,18.80
2022-10-18T11:27:55.261Z,18.76
2022-10-18T11:31:20.168Z,18.77
2022-10-18T11:34:24.953Z,18.76
2022-10-18T11:37:38.412Z,18.80
2022-10-18T11:40:43.342Z,18.77
2022-10-18T11:44:02.634Z,18.71
2022-10-18T11:47:20.180Z,18.70
2022-10-18T11:50:30.785Z,18.73
2022-10-18T11:53:41.000Z,18.73
2022-10-18T11:56:57.835Z,18.66
2022-10-18T12:00:08.991Z,18.65
2022-10-18T12:03:42.737Z,18.63
2022-10-18T12:06:47.400Z,18.64
2022-10-18T12:09:53.297Z,18.63
2022-10-18T12:13:02.051Z,18.66
2022-10-18T12:16:07.111Z,18.58
2022-10-18T12:19:23.407Z,18.56
2022-10-18T12:22:36.036Z,18.48
2022-10-18T12:25:42.040Z,18.44
2022-10-18T12:28:47.031Z,18.46
2022-10-18T12:31:54.641Z,18.36
2022-10-18T12:35:16.400Z,18.36
2022-10-18T12:38:25.283Z,18.30
2022-10-18T12:41:30.270Z,18.31
2022-10-18T12:44:34.612Z,18.27
2022-10-18T12:47:36.737Z,18.24
2022-10-18T12:50:42.153Z,18.21
2022-10-18T12:53:50.524Z,18.15
2022-10-18T12:56:52.733Z,18.09
2022-10-18T12:59:54.621Z,18.04
2022-10-18T13:03:25.693Z,18.02
2022-10-18T13:07:05.513Z,17.94
2022-10-18T13:10:10.148Z,17.92
2022-10-18T13:13:38.564Z,17.88
2022-10-18T13:16:55.255Z,17.84
2022-10-18T13:20:25.181Z,17.82
2022-10-18T13:23:59.656Z,17.73
2022-10-18T13:27:24.528Z,17.74
2022-10-18T13:30:50.548Z,17.68
2022-10-18T13:33:52.709Z,17.59
2022-10-18T13:37:25.664Z,17.59
2022-10-18T13:40:27.537Z,17.53
2022-10-18T13:43:54.347Z,17.43
2022-10-18T13:46:56.122Z,17.35
2022-10-18T13:53:43.318Z,17.25
2022-10-18T13:57:09.547Z,17.17
2022-10-18T14:00:49.116Z,17.11
2022-10-18T14:04:20.306Z,17.00
2022-10-18T14:07:25.488Z,16.89
2022-10-18T14:11:01.292Z,16.78
2022-10-18T14:14:13.729Z,16.75
2022-10-18T14:17:43.076Z,16.64
2022-10-18T14:21:12.175Z,16.53
2022-10-18T14:24:23.544Z,16.42
2022-10-18T14:27:34.386Z,16.29
2022-10-18T14:30:37.413Z,16.16
2022-10-18T14:33:43.008Z,16.07
2022-10-18T14:36:48.460Z,15.97
2022-10-18T14:39:50.585Z,15.87
2022-10-18T14:42:52.359Z,15.79
2022-10-18T14:45:54.207Z,15.70
2022-10-18T14:49:01.427Z,15.60
2022-10-18T14:52:03.281Z,15.57
2022-10-18T14:55:05.570Z,15.51
2022-10-18T14:58:15.911Z,15.42
2022-10-18T15:01:20.410Z,15.32
2022-10-18T15:04:27.832Z,15.23
2022-10-18T15:07:32.350Z,15.12
2022-10-18T15:10:35.299Z,15.04
2022-10-18T15:13:41.834Z,14.92
2022-10-18T15:16:43.959Z,14.86
2022-10-18T15:19:57.724Z,14.83
2022-10-18T15:23:24.498Z,14.75
2022-10-18T15:26:29.963Z,14.66
2022-10-18T15:29:33.460Z,14.61
2022-10-18T15:32:35.581Z,14.57
2022-10-18T15:35:39.135Z,14.53
2022-10-18T15:38:40.974Z,14.50
2022-10-18T15:42:05.241Z,14.45
2022-10-18T15:45:33.504Z,14.42
2022-10-18T15:48:40.569Z,14.38
2022-10-18T15:51:49.977Z,14.36
2022-10-18T15:54:51.795Z,14.30
2022-10-18T15:57:53.644Z,14.28
2022-10-18T16:01:02.521Z,14.25
2022-10-18T16:04:19.022Z,14.21
2022-10-18T16:07:21.281Z,14.14
2022-10-18T16:10:23.124Z,14.07
2022-10-18T16:13:26.331Z,13.96
2022-10-18T16:16:29.337Z,13.90
2022-10-18T16:19:32.273Z,13.86
2022-10-18T16:22:36.307Z,13.82
2022-10-18T16:25:39.071Z,13.78
2022-10-18T16:28:41.028Z,13.73
2022-10-18T16:31:43.143Z,13.69
2022-10-18T16:34:44.918Z,13.63
2022-10-18T16:37:46.868Z,13.54
2022-10-18T16:40:48.794Z,13.48
2022-10-18T16:43:51.535Z,13.44
2022-10-18T16:46:54.111Z,13.35
2022-10-18T16:50:01.513Z,13.31
2022-10-18T16:53:05.951Z,13.25
2022-10-18T16:56:22.341Z,13.22
2022-10-18T16:59:29.427Z,13.19
2022-10-18T17:02:31.518Z,13.16
2022-10-18T17:05:33.832Z,13.12
2022-10-18T17:08:35.732Z,13.09
2022-10-18T17:11:37.554Z,13.07
2022-10-18T17:14:39.376Z,13.03
2022-10-18T17:17:41.275Z,12.98
2022-10-18T17:20:43.658Z,12.97
2022-10-18T17:23:45.625Z,12.91
2022-10-18T17:26:47.470Z,12.86
2022-10-18T17:29:49.535Z,12.80
2022-10-18T17:32:51.378Z,12.77
2022-10-18T17:35:53.219Z,12.75
2022-10-18T17:38:55.519Z,12.72
2022-10-18T17:41:57.655Z,12.72
2022-10-18T17:44:59.564Z,12.70
2022-10-18T17:48:02.470Z,12.68
2022-10-18T17:51:13.237Z,12.64
2022-10-18T17:54:15.151Z,12.60
2022-10-18T17:57:17.627Z,12.57
2022-10-18T18:00:19.598Z,12.58
2022-10-18T18:03:21.534Z,12.56
2022-10-18T18:06:33.950Z,12.55
2022-10-18T18:09:35.774Z,12.51
2022-10-18T18:12:37.538Z,12.47
2022-10-18T18:15:39.387Z,12.46
2022-10-18T18:18:41.605Z,12.43
2022-10-18T18:21:43.602Z,12.40
2022-10-18T18:24:45.607Z,12.40
2022-10-18T18:27:47.489Z,12.33
2022-10-18T18:30:49.470Z,12.32
2022-10-18T18:33:54.430Z,12.32
2022-10-18T18:36:56.421Z,12.30
2022-10-18T18:39:58.337Z,12.27
2022-10-18T18:43:07.074Z,12.25
2022-10-18T18:46:14.212Z,12.27
2022-10-18T18:49:16.068Z,12.21
2022-10-18T18:52:17.857Z,12.17
2022-10-18T18:55:19.687Z,12.14
2022-10-18T18:58:21.511Z,12.10
2022-10-18T19:01:26.289Z,12.05
2022-10-18T19:04:29.150Z,12.00
2022-10-18T19:07:31.250Z,11.93
2022-10-18T19:10:33.396Z,11.87
2022-10-18T19:13:35.367Z,11.84
2022-10-18T19:16:45.618Z,11.79
2022-10-18T19:19:47.500Z,11.76
2022-10-18T19:22:49.446Z,11.72
2022-10-18T19:25:51.253Z,11.67
2022-10-18T19:28:53.337Z,11.65
2022-10-18T19:31:57.620Z,11.62
2022-10-18T19:34:59.373Z,11.60
2022-10-18T19:38:01.188Z,11.56
2022-10-18T19:41:02.955Z,11.56
2022-10-18T19:44:05.012Z,11.55
2022-10-18T19:47:09.990Z,11.53
2022-10-18T19:50:11.796Z,11.50
2022-10-18T19:53:13.613Z,11.49
2022-10-18T19:56:19.860Z,11.46
2022-10-18T19:59:22.878Z,11.42
2022-10-18T20:02:24.686Z,11.39
2022-10-18T20:05:26.777Z,11.36
2022-10-18T20:08:31.434Z,11.32
2022-10-18T20:11:34.202Z,11.32
2022-10-18T20:14:35.990Z,11.29
2022-10-18T20:17:37.909Z,11.23
2022-10-18T20:20:40.419Z,11.23
2022-10-18T20:23:44.763Z,11.19
2022-10-18T20:26:46.629Z,11.19
2022-10-18T20:29:48.460Z,11.18
2022-10-18T20:32:53.611Z,11.12
2022-10-18T20:35:55.527Z,11.05
2022-10-18T20:38:57.994Z,11.03
2022-10-18T20:41:59.830Z,10.98
2022-10-18T20:45:01.774Z,10.97
2022-10-18T20:48:03.637Z,10.94
2022-10-18T20:51:12.717Z,10.91
2022-10-18T20:54:14.501Z,10.86
2022-10-18T20:57:16.199Z,10.83
2022-10-18T21:00:18.090Z,10.80
2022-10-18T21:03:19.863Z,10.78
2022-10-18T21:06:30.756Z,10.77
2022-10-18T21:09:32.487Z,10.75
2022-10-18T21:12:35.171Z,10.71
2022-10-18T21:15:37.274Z,10.70
2022-10-18T21:18:40.435Z,10.67
2022-10-18T21:21:44.100Z,10.61
2022-10-18T21:24:46.601Z,10.62
2022-10-18T21:27:48.487Z,10.56
2022-10-18T21:30:50.270Z,10.53
2022-10-18T21:33:55.227Z,10.48
2022-10-18T21:36:56.921Z,10.47
2022-10-18T21:39:58.738Z,10.46
2022-10-18T21:43:00.565Z,10.41
2022-10-18T21:46:02.583Z,10.36
2022-10-18T21:49:04.373Z,10.32
2022-10-18T21:52:06.506Z,10.26
2022-10-18T21:55:08.555Z,10.24
2022-10-18T21:58:10.554Z,10.20
2022-10-18T22:01:19.697Z,10.16
2022-10-18T22:04:23.874Z,10.14
2022-10-18T22:07:25.690Z,10.10
2022-10-18T22:10:27.436Z,10.09
2022-10-18T22:13:29.234Z,10.10
2022-10-18T22:16:31.034Z,10.06
2022-10-18T22:19:32.816Z,10.05
2022-10-18T22:22:34.580Z,10.02
2022-10-18T22:25:36.795Z,9.96
2022-10-18T22:28:40.304Z,10.02
2022-10-18T22:31:45.854Z,9.94
2022-10-18T22:34:47.643Z,9.96
2022-10-18T22:37:49.435Z,9.95
2022-10-18T22:40:51.858Z,9.91
2022-10-18T22:43:55.543Z,9.91
2022-10-18T22:46:59.116Z,9.88
2022-10-18T22:50:00.877Z,9.84
2022-10-18T22:53:02.637Z,9.80
2022-10-18T22:56:05.428Z,9.79
2022-10-18T22:59:07.187Z,9.78
2022-10-18T23:02:09.708Z,9.76
2022-10-18T23:05:11.649Z,9.74
2022-10-18T23:08:14.257Z,9.70
2022-10-18T23:11:16.579Z,9.72
2022-10-18T23:14:18.863Z,9.71
2022-10-18T23:17:20.628Z,9.71
2022-10-18T23:20:22.423Z,9.70
2022-10-18T23:23:24.252Z,9.68
2022-10-18T23:26:27.724Z,9.66
2022-10-18T23:29:29.520Z,9.64
2022-10-18T23:32:31.785Z,9.59
2022-10-18T23:35:33.778Z,9.59
2022-10-18T23:38:36.685Z,9.57
2022-10-18T23:41:38.318Z,9.52
2022-10-18T23:44:40.121Z,9.54
2022-10-18T23:47:41.846Z,9.53
2022-10-18T23:50:43.742Z,9.51
2022-10-18T23:53:45.557Z,9.50
2022-10-18T23:56:47.367Z,9.47
2022-10-18T23:59:49.206Z,9.43
